sensor_id;sensor_type;location;lat;lon;timestamp;pressure;altitude;pressure_sealevel;temperature;humidity
75089;BME280;63673;49.928;8.150;2023-05-29T00:00:47;992.64;;;16.88;57.85
75089;BME280;63673;49.928;8.150;2023-05-29T00:01:49;992.56;;;16.88;57.92
75089;BME280;63673;49.928;8.150;2023-05-29T00:02:51;992.54;;;16.87;58.12
75089;BME280;63673;49.928;8.150;2023-05-29T00:03:53;992.52;;;16.87;58.36
75089;BME280;63673;49.928;8.150;2023-05-29T00:04:54;992.55;;;16.87;58.12
75089;BME280;63673;49.928;8.150;2023-05-29T00:05:56;992.55;;;16.87;58.21
75089;BME280;63673;49.928;8.150;2023-05-29T00:06:58;992.6;;;16.87;57.98
75089;BME280;63673;49.928;8.150;2023-05-29T00:07:59;992.54;;;16.87;58.01
75089;BME280;63673;49.928;8.150;2023-05-29T00:09:01;992.57;;;16.87;58.09
75089;BME280;63673;49.928;8.150;2023-05-29T00:10:03;992.59;;;16.86;58.29
75089;BME280;63673;49.928;8.150;2023-05-29T00:11:05;992.6;;;16.87;58.09
75089;BME280;63673;49.928;8.150;2023-05-29T00:12:07;992.58;;;16.87;58.13
75089;BME280;63673;49.928;8.150;2023-05-29T00:13:08;992.61;;;16.87;58.42
75089;BME280;63673;49.928;8.150;2023-05-29T00:14:10;992.58;;;16.86;58.58
75089;BME280;63673;49.928;8.150;2023-05-29T00:15:12;992.6;;;16.86;58.7
75089;BME280;63673;49.928;8.150;2023-05-29T00:16:13;992.65;;;16.86;58.53
75089;BME280;63673;49.928;8.150;2023-05-29T00:17:15;992.58;;;16.86;58.56
75089;BME280;63673;49.928;8.150;2023-05-29T00:18:17;992.59;;;16.86;58.44
75089;BME280;63673;49.928;8.150;2023-05-29T00:19:19;992.59;;;16.85;58.39
75089;BME280;63673;49.928;8.150;2023-05-29T00:20:20;992.57;;;16.85;58.51
75089;BME280;63673;49.928;8.150;2023-05-29T00:21:22;992.59;;;16.84;58.37
75089;BME280;63673;49.928;8.150;2023-05-29T00:22:24;992.59;;;16.84;58.51
75089;BME280;63673;49.928;8.150;2023-05-29T00:23:26;992.53;;;16.83;58.24
75089;BME280;63673;49.928;8.150;2023-05-29T00:24:27;992.55;;;16.82;58.66
75089;BME280;63673;49.928;8.150;2023-05-29T00:25:29;992.54;;;16.82;58.67
75089;BME280;63673;49.928;8.150;2023-05-29T00:26:31;992.53;;;16.82;58.52
75089;BME280;63673;49.928;8.150;2023-05-29T00:27:33;992.52;;;16.82;58.7
75089;BME280;63673;49.928;8.150;2023-05-29T00:28:34;992.53;;;16.81;58.64
75089;BME280;63673;49.928;8.150;2023-05-29T00:29:36;992.52;;;16.8;58.68
75089;BME280;63673;49.928;8.150;2023-05-29T00:30:38;992.48;;;16.79;58.79
75089;BME280;63673;49.928;8.150;2023-05-29T00:31:39;992.53;;;16.78;58.93
75089;BME280;63673;49.928;8.150;2023-05-29T00:32:41;992.51;;;16.78;59.06
75089;BME280;63673;49.928;8.150;2023-05-29T00:33:43;992.49;;;16.77;58.75
75089;BME280;63673;49.928;8.150;2023-05-29T00:34:45;992.55;;;16.76;58.99
75089;BME280;63673;49.928;8.150;2023-05-29T00:35:46;992.5;;;16.75;58.95
75089;BME280;63673;49.928;8.150;2023-05-29T00:36:48;992.49;;;16.74;59.05
75089;BME280;63673;49.928;8.150;2023-05-29T00:37:50;992.5;;;16.73;59.61
75089;BME280;63673;49.928;8.150;2023-05-29T00:38:51;992.49;;;16.72;58.94
75089;BME280;63673;49.928;8.150;2023-05-29T00:39:53;992.49;;;16.7;59.2
75089;BME280;63673;49.928;8.150;2023-05-29T00:40:55;992.45;;;16.69;59.45
75089;BME280;63673;49.928;8.150;2023-05-29T00:41:57;992.46;;;16.69;59.49
75089;BME280;63673;49.928;8.150;2023-05-29T00:42:58;992.48;;;16.68;59.58
75089;BME280;63673;49.928;8.150;2023-05-29T00:44:00;992.46;;;16.66;59.62
75089;BME280;63673;49.928;8.150;2023-05-29T00:45:02;992.43;;;16.65;59.63
75089;BME280;63673;49.928;8.150;2023-05-29T00:46:04;992.51;;;16.62;59.36
75089;BME280;63673;49.928;8.150;2023-05-29T00:47:05;992.48;;;16.61;59.68
75089;BME280;63673;49.928;8.150;2023-05-29T00:48:07;992.42;;;16.59;59.74
75089;BME280;63673;49.928;8.150;2023-05-29T00:49:09;992.43;;;16.58;60.04
75089;BME280;63673;49.928;8.150;2023-05-29T00:50:11;992.45;;;16.57;59.88
75089;BME280;63673;49.928;8.150;2023-05-29T00:51:12;992.43;;;16.56;59.97
75089;BME280;63673;49.928;8.150;2023-05-29T00:52:14;992.47;;;16.55;59.88
75089;BME280;63673;49.928;8.150;2023-05-29T00:53:16;992.49;;;16.53;60
75089;BME280;63673;49.928;8.150;2023-05-29T00:54:20;992.43;;;16.52;59.59
75089;BME280;63673;49.928;8.150;2023-05-29T00:55:19;992.4;;;16.51;60.3
75089;BME280;63673;49.928;8.150;2023-05-29T00:56:21;992.39;;;16.51;60.33
75089;BME280;63673;49.928;8.150;2023-05-29T00:57:23;992.44;;;16.47;60.33
75089;BME280;63673;49.928;8.150;2023-05-29T00:58:24;992.46;;;16.46;60.17
75089;BME280;63673;49.928;8.150;2023-05-29T00:59:26;992.47;;;16.44;60.73
75089;BME280;63673;49.928;8.150;2023-05-29T01:00:28;992.45;;;16.44;60.37
75089;BME280;63673;49.928;8.150;2023-05-29T01:01:30;992.45;;;16.42;60.67
75089;BME280;63673;49.928;8.150;2023-05-29T01:02:31;992.47;;;16.41;60.75
75089;BME280;63673;49.928;8.150;2023-05-29T01:03:33;992.45;;;16.4;60.54
75089;BME280;63673;49.928;8.150;2023-05-29T01:04:35;992.44;;;16.39;60.83
75089;BME280;63673;49.928;8.150;2023-05-29T01:05:37;992.42;;;16.38;60.86
75089;BME280;63673;49.928;8.150;2023-05-29T01:06:38;992.4;;;16.38;60.43
75089;BME280;63673;49.928;8.150;2023-05-29T01:07:40;992.47;;;16.36;60.99
75089;BME280;63673;49.928;8.150;2023-05-29T01:08:42;992.45;;;16.36;60.73
75089;BME280;63673;49.928;8.150;2023-05-29T01:09:44;992.42;;;16.33;61.08
75089;BME280;63673;49.928;8.150;2023-05-29T01:10:45;992.44;;;16.33;61.17
75089;BME280;63673;49.928;8.150;2023-05-29T01:11:50;992.44;;;16.32;61.09
75089;BME280;63673;49.928;8.150;2023-05-29T01:12:49;992.48;;;16.31;60.96
75089;BME280;63673;49.928;8.150;2023-05-29T01:13:50;992.43;;;16.3;61.14
75089;BME280;63673;49.928;8.150;2023-05-29T01:14:57;992.43;;;16.3;60.99
75089;BME280;63673;49.928;8.150;2023-05-29T01:15:54;992.48;;;16.29;61.27
75089;BME280;63673;49.928;8.150;2023-05-29T01:17:01;992.45;;;16.27;61.25
75089;BME280;63673;49.928;8.150;2023-05-29T01:18:03;992.42;;;16.26;61.3
75089;BME280;63673;49.928;8.150;2023-05-29T01:19:00;992.41;;;16.25;61.41
75089;BME280;63673;49.928;8.150;2023-05-29T01:20:06;992.46;;;16.24;61.34
75089;BME280;63673;49.928;8.150;2023-05-29T01:21:04;992.46;;;16.23;61.57
75089;BME280;63673;49.928;8.150;2023-05-29T01:22:08;992.45;;;16.22;61.39
75089;BME280;63673;49.928;8.150;2023-05-29T01:23:07;992.44;;;16.21;61.66
75089;BME280;63673;49.928;8.150;2023-05-29T01:24:13;992.44;;;16.19;61.48
75089;BME280;63673;49.928;8.150;2023-05-29T01:25:11;992.41;;;16.19;61.68
75089;BME280;63673;49.928;8.150;2023-05-29T01:26:16;992.4;;;16.18;61.53
75089;BME280;63673;49.928;8.150;2023-05-29T01:27:13;992.39;;;16.16;61.85
75089;BME280;63673;49.928;8.150;2023-05-29T01:28:15;992.41;;;16.15;61.7
75089;BME280;63673;49.928;8.150;2023-05-29T01:29:17;992.44;;;16.14;61.97
75089;BME280;63673;49.928;8.150;2023-05-29T01:30:18;992.47;;;16.12;61.93
75089;BME280;63673;49.928;8.150;2023-05-29T01:31:21;992.45;;;16.11;61.83
75089;BME280;63673;49.928;8.150;2023-05-29T01:32:22;992.49;;;16.1;61.83
75089;BME280;63673;49.928;8.150;2023-05-29T01:33:23;992.46;;;16.08;62.23
75089;BME280;63673;49.928;8.150;2023-05-29T01:34:25;992.48;;;16.07;62.56
75089;BME280;63673;49.928;8.150;2023-05-29T01:35:28;992.48;;;16.05;61.9
75089;BME280;63673;49.928;8.150;2023-05-29T01:36:29;992.46;;;16.02;62.29
75089;BME280;63673;49.928;8.150;2023-05-29T01:37:30;992.43;;;16.01;62.62
75089;BME280;63673;49.928;8.150;2023-05-29T01:38:32;992.39;;;15.99;62.54
75089;BME280;63673;49.928;8.150;2023-05-29T01:39:34;992.45;;;15.97;62.5
75089;BME280;63673;49.928;8.150;2023-05-29T01:40:35;992.41;;;15.95;62.58
75089;BME280;63673;49.928;8.150;2023-05-29T01:41:37;992.49;;;15.94;62.66
75089;BME280;63673;49.928;8.150;2023-05-29T01:42:39;992.48;;;15.92;62.85
75089;BME280;63673;49.928;8.150;2023-05-29T01:43:41;992.49;;;15.91;62.78
75089;BME280;63673;49.928;8.150;2023-05-29T01:44:42;992.51;;;15.89;63.16
75089;BME280;63673;49.928;8.150;2023-05-29T01:45:44;992.5;;;15.88;63.55
75089;BME280;63673;49.928;8.150;2023-05-29T01:46:46;992.56;;;15.87;62.98
75089;BME280;63673;49.928;8.150;2023-05-29T01:47:48;992.5;;;15.85;63.25
75089;BME280;63673;49.928;8.150;2023-05-29T01:48:49;992.52;;;15.85;63.43
75089;BME280;63673;49.928;8.150;2023-05-29T01:49:51;992.47;;;15.84;63.08
75089;BME280;63673;49.928;8.150;2023-05-29T01:50:54;992.52;;;15.82;63.7
75089;BME280;63673;49.928;8.150;2023-05-29T01:51:54;992.47;;;15.81;63.83
75089;BME280;63673;49.928;8.150;2023-05-29T01:52:56;992.42;;;15.8;63.78
75089;BME280;63673;49.928;8.150;2023-05-29T01:53:58;992.46;;;15.79;63.34
75089;BME280;63673;49.928;8.150;2023-05-29T01:55:00;992.45;;;15.77;63.72
75089;BME280;63673;49.928;8.150;2023-05-29T01:56:02;992.47;;;15.77;63.23
75089;BME280;63673;49.928;8.150;2023-05-29T01:57:03;992.51;;;15.75;63.57
75089;BME280;63673;49.928;8.150;2023-05-29T01:58:05;992.48;;;15.74;63.47
75089;BME280;63673;49.928;8.150;2023-05-29T01:59:07;992.45;;;15.73;63.77
75089;BME280;63673;49.928;8.150;2023-05-29T02:00:09;992.43;;;15.73;63.77
75089;BME280;63673;49.928;8.150;2023-05-29T02:01:10;992.36;;;15.73;64.25
75089;BME280;63673;49.928;8.150;2023-05-29T02:02:12;992.45;;;15.72;63.85
75089;BME280;63673;49.928;8.150;2023-05-29T02:03:14;992.43;;;15.72;63.68
75089;BME280;63673;49.928;8.150;2023-05-29T02:04:15;992.41;;;15.72;63.83
75089;BME280;63673;49.928;8.150;2023-05-29T02:05:17;992.44;;;15.72;63.83
75089;BME280;63673;49.928;8.150;2023-05-29T02:06:20;992.41;;;15.72;63.83
75089;BME280;63673;49.928;8.150;2023-05-29T02:07:21;992.44;;;15.72;63.74
75089;BME280;63673;49.928;8.150;2023-05-29T02:08:22;992.41;;;15.72;64.06
75089;BME280;63673;49.928;8.150;2023-05-29T02:09:24;992.39;;;15.71;63.79
75089;BME280;63673;49.928;8.150;2023-05-29T02:10:52;0.01;;;15.7;0.01
75089;BME280;63673;49.928;8.150;2023-05-29T02:11:53;992.35;;;15.69;64.07
75089;BME280;63673;49.928;8.150;2023-05-29T02:12:55;992.33;;;15.69;64.11
75089;BME280;63673;49.928;8.150;2023-05-29T02:13:57;992.37;;;15.67;64.49
75089;BME280;63673;49.928;8.150;2023-05-29T02:14:58;992.34;;;15.67;64.67
75089;BME280;63673;49.928;8.150;2023-05-29T02:16:00;992.32;;;15.66;64.28
75089;BME280;63673;49.928;8.150;2023-05-29T02:17:02;992.33;;;15.65;64.12
75089;BME280;63673;49.928;8.150;2023-05-29T02:18:04;992.32;;;15.64;64.91
75089;BME280;63673;49.928;8.150;2023-05-29T02:19:05;992.34;;;15.63;64.32
75089;BME280;63673;49.928;8.150;2023-05-29T02:20:07;992.32;;;15.62;64.87
75089;BME280;63673;49.928;8.150;2023-05-29T02:21:09;992.36;;;15.61;64.51
75089;BME280;63673;49.928;8.150;2023-05-29T02:22:11;992.3;;;15.59;64.97
75089;BME280;63673;49.928;8.150;2023-05-29T02:23:12;992.31;;;15.57;65.06
75089;BME280;63673;49.928;8.150;2023-05-29T02:24:14;992.3;;;15.56;64.97
75089;BME280;63673;49.928;8.150;2023-05-29T02:25:16;992.28;;;15.54;65.17
75089;BME280;63673;49.928;8.150;2023-05-29T02:26:17;992.27;;;15.52;65.32
75089;BME280;63673;49.928;8.150;2023-05-29T02:27:19;992.28;;;15.5;65.36
75089;BME280;63673;49.928;8.150;2023-05-29T02:28:21;992.28;;;15.48;65.72
75089;BME280;63673;49.928;8.150;2023-05-29T02:29:23;992.31;;;15.44;65.72
75089;BME280;63673;49.928;8.150;2023-05-29T02:30:24;992.27;;;15.42;66.01
75089;BME280;63673;49.928;8.150;2023-05-29T02:31:26;992.32;;;15.39;66.45
75089;BME280;63673;49.928;8.150;2023-05-29T02:32:28;992.31;;;15.37;66.15
75089;BME280;63673;49.928;8.150;2023-05-29T02:33:30;992.29;;;15.32;66.72
75089;BME280;63673;49.928;8.150;2023-05-29T02:34:31;992.23;;;15.3;67.02
75089;BME280;63673;49.928;8.150;2023-05-29T02:35:33;992.28;;;15.26;67.09
75089;BME280;63673;49.928;8.150;2023-05-29T02:36:35;992.29;;;15.22;67.34
75089;BME280;63673;49.928;8.150;2023-05-29T02:37:36;992.31;;;15.19;67.95
75089;BME280;63673;49.928;8.150;2023-05-29T02:38:38;992.34;;;15.16;67.43
75089;BME280;63673;49.928;8.150;2023-05-29T02:39:40;992.33;;;15.14;67.56
75089;BME280;63673;49.928;8.150;2023-05-29T02:40:42;992.34;;;15.1;67.36
75089;BME280;63673;49.928;8.150;2023-05-29T02:41:43;992.37;;;15.08;67.61
75089;BME280;63673;49.928;8.150;2023-05-29T02:42:45;992.29;;;15.04;67.97
75089;BME280;63673;49.928;8.150;2023-05-29T02:43:47;992.36;;;15.01;68.52
75089;BME280;63673;49.928;8.150;2023-05-29T02:44:49;992.39;;;14.99;67.53
75089;BME280;63673;49.928;8.150;2023-05-29T02:45:50;992.34;;;14.97;68.39
75089;BME280;63673;49.928;8.150;2023-05-29T02:46:52;992.36;;;14.95;67.88
75089;BME280;63673;49.928;8.150;2023-05-29T02:47:54;992.33;;;14.93;68.05
75089;BME280;63673;49.928;8.150;2023-05-29T02:48:56;992.31;;;14.93;68.01
75089;BME280;63673;49.928;8.150;2023-05-29T02:49:57;992.38;;;14.92;68.06
75089;BME280;63673;49.928;8.150;2023-05-29T02:50:59;992.33;;;14.9;69.35
75089;BME280;63673;49.928;8.150;2023-05-29T02:52:01;992.34;;;14.89;68.88
75089;BME280;63673;49.928;8.150;2023-05-29T02:53:02;992.37;;;14.87;68.69
75089;BME280;63673;49.928;8.150;2023-05-29T02:54:04;992.37;;;14.84;69.24
75089;BME280;63673;49.928;8.150;2023-05-29T02:55:06;992.38;;;14.81;69.73
75089;BME280;63673;49.928;8.150;2023-05-29T02:56:08;992.42;;;14.76;69.62
75089;BME280;63673;49.928;8.150;2023-05-29T02:57:09;992.37;;;14.75;69.54
75089;BME280;63673;49.928;8.150;2023-05-29T02:58:11;992.41;;;14.71;69.99
75089;BME280;63673;49.928;8.150;2023-05-29T02:59:13;992.35;;;14.68;69.64
75089;BME280;63673;49.928;8.150;2023-05-29T03:00:15;992.39;;;14.64;69.88
75089;BME280;63673;49.928;8.150;2023-05-29T03:01:16;992.36;;;14.61;69.92
75089;BME280;63673;49.928;8.150;2023-05-29T03:02:18;992.33;;;14.6;70.13
75089;BME280;63673;49.928;8.150;2023-05-29T03:03:20;992.36;;;14.57;69.9
75089;BME280;63673;49.928;8.150;2023-05-29T03:04:22;992.34;;;14.55;71.07
75089;BME280;63673;49.928;8.150;2023-05-29T03:05:23;992.36;;;14.53;70.34
75089;BME280;63673;49.928;8.150;2023-05-29T03:06:25;992.39;;;14.51;70.67
75089;BME280;63673;49.928;8.150;2023-05-29T03:07:27;992.34;;;14.49;71.44
75089;BME280;63673;49.928;8.150;2023-05-29T03:08:28;992.31;;;14.46;71.37
75089;BME280;63673;49.928;8.150;2023-05-29T03:09:30;992.35;;;14.44;71.77
75089;BME280;63673;49.928;8.150;2023-05-29T03:10:32;992.35;;;14.41;71.5
75089;BME280;63673;49.928;8.150;2023-05-29T03:11:34;992.3;;;14.39;71.5
75089;BME280;63673;49.928;8.150;2023-05-29T03:12:35;992.34;;;14.37;71.39
75089;BME280;63673;49.928;8.150;2023-05-29T03:13:37;992.28;;;14.35;71.56
75089;BME280;63673;49.928;8.150;2023-05-29T03:14:39;992.31;;;14.33;71.96
75089;BME280;63673;49.928;8.150;2023-05-29T03:15:41;992.28;;;14.32;72
75089;BME280;63673;49.928;8.150;2023-05-29T03:16:42;992.27;;;14.31;71.66
75089;BME280;63673;49.928;8.150;2023-05-29T03:17:44;992.26;;;14.31;71.82
75089;BME280;63673;49.928;8.150;2023-05-29T03:18:46;992.24;;;14.33;71.57
75089;BME280;63673;49.928;8.150;2023-05-29T03:19:48;992.32;;;14.33;71.85
75089;BME280;63673;49.928;8.150;2023-05-29T03:20:49;992.28;;;14.34;71.88
75089;BME280;63673;49.928;8.150;2023-05-29T03:21:51;992.33;;;14.35;72.2
75089;BME280;63673;49.928;8.150;2023-05-29T03:22:53;992.3;;;14.35;72.05
75089;BME280;63673;49.928;8.150;2023-05-29T03:23:54;992.36;;;14.36;72.15
75089;BME280;63673;49.928;8.150;2023-05-29T03:24:56;992.37;;;14.35;71.74
75089;BME280;63673;49.928;8.150;2023-05-29T03:26:00;992.36;;;14.35;72.22
75089;BME280;63673;49.928;8.150;2023-05-29T03:27:00;992.33;;;14.35;71.69
75089;BME280;63673;49.928;8.150;2023-05-29T03:28:01;992.33;;;14.35;71.99
75089;BME280;63673;49.928;8.150;2023-05-29T03:29:03;992.36;;;14.34;72.46
75089;BME280;63673;49.928;8.150;2023-05-29T03:30:05;992.37;;;14.34;72.14
75089;BME280;63673;49.928;8.150;2023-05-29T03:31:07;992.3;;;14.32;72.05
75089;BME280;63673;49.928;8.150;2023-05-29T03:32:08;992.34;;;14.32;72.29
75089;BME280;63673;49.928;8.150;2023-05-29T03:33:10;992.39;;;14.29;72.47
75089;BME280;63673;49.928;8.150;2023-05-29T03:34:12;992.38;;;14.3;72.57
75089;BME280;63673;49.928;8.150;2023-05-29T03:35:14;992.35;;;14.29;72.43
75089;BME280;63673;49.928;8.150;2023-05-29T03:36:15;992.39;;;14.29;72.71
75089;BME280;63673;49.928;8.150;2023-05-29T03:37:17;992.45;;;14.28;72.28
75089;BME280;63673;49.928;8.150;2023-05-29T03:38:19;992.41;;;14.28;72.45
75089;BME280;63673;49.928;8.150;2023-05-29T03:39:20;992.45;;;14.29;72.12
75089;BME280;63673;49.928;8.150;2023-05-29T03:40:22;992.44;;;14.29;72.25
75089;BME280;63673;49.928;8.150;2023-05-29T03:41:24;992.41;;;14.3;72.06
75089;BME280;63673;49.928;8.150;2023-05-29T03:42:26;992.46;;;14.3;72.88
75089;BME280;63673;49.928;8.150;2023-05-29T03:43:27;992.5;;;14.3;72.35
75089;BME280;63673;49.928;8.150;2023-05-29T03:44:29;992.46;;;14.3;72.39
75089;BME280;63673;49.928;8.150;2023-05-29T03:45:31;992.5;;;14.28;72.82
75089;BME280;63673;49.928;8.150;2023-05-29T03:46:33;992.5;;;14.27;73.02
75089;BME280;63673;49.928;8.150;2023-05-29T03:47:34;992.55;;;14.26;72.75
75089;BME280;63673;49.928;8.150;2023-05-29T03:48:36;992.51;;;14.24;72.66
75089;BME280;63673;49.928;8.150;2023-05-29T03:49:38;992.55;;;14.22;73.68
75089;BME280;63673;49.928;8.150;2023-05-29T03:50:40;992.51;;;14.21;74.26
75089;BME280;63673;49.928;8.150;2023-05-29T03:51:41;992.53;;;14.19;74.44
75089;BME280;63673;49.928;8.150;2023-05-29T03:52:43;992.54;;;14.17;74.69
75089;BME280;63673;49.928;8.150;2023-05-29T03:53:45;992.57;;;14.15;74.28
75089;BME280;63673;49.928;8.150;2023-05-29T03:54:46;992.59;;;14.12;74.18
75089;BME280;63673;49.928;8.150;2023-05-29T03:55:48;992.59;;;14.11;74.43
75089;BME280;63673;49.928;8.150;2023-05-29T03:56:50;992.64;;;14.08;74.42
75089;BME280;63673;49.928;8.150;2023-05-29T03:57:52;992.67;;;14.06;74.65
75089;BME280;63673;49.928;8.150;2023-05-29T03:58:53;992.58;;;14.05;74.96
75089;BME280;63673;49.928;8.150;2023-05-29T03:59:55;992.72;;;14.04;75.73
75089;BME280;63673;49.928;8.150;2023-05-29T04:00:57;992.75;;;14.01;75.55
75089;BME280;63673;49.928;8.150;2023-05-29T04:01:59;992.7;;;14;76.82
75089;BME280;63673;49.928;8.150;2023-05-29T04:03:00;992.78;;;13.98;76.59
75089;BME280;63673;49.928;8.150;2023-05-29T04:04:02;992.79;;;13.95;76.76
75089;BME280;63673;49.928;8.150;2023-05-29T04:05:04;992.8;;;13.93;78.11
75089;BME280;63673;49.928;8.150;2023-05-29T04:06:06;992.79;;;13.92;78.94
75089;BME280;63673;49.928;8.150;2023-05-29T04:07:07;992.81;;;13.9;78.04
75089;BME280;63673;49.928;8.150;2023-05-29T04:08:09;992.77;;;13.89;79.12
75089;BME280;63673;49.928;8.150;2023-05-29T04:09:11;992.83;;;13.87;79.52
75089;BME280;63673;49.928;8.150;2023-05-29T04:10:12;992.82;;;13.84;79.27
75089;BME280;63673;49.928;8.150;2023-05-29T04:11:14;992.85;;;13.83;79.42
75089;BME280;63673;49.928;8.150;2023-05-29T04:12:16;992.86;;;13.8;81.15
75089;BME280;63673;49.928;8.150;2023-05-29T04:13:18;992.87;;;13.79;79.78
75089;BME280;63673;49.928;8.150;2023-05-29T04:14:19;992.9;;;13.77;81.39
75089;BME280;63673;49.928;8.150;2023-05-29T04:15:21;992.94;;;13.76;81.08
75089;BME280;63673;49.928;8.150;2023-05-29T04:16:23;992.9;;;13.74;81.3
75089;BME280;63673;49.928;8.150;2023-05-29T04:17:25;992.94;;;13.72;80.54
75089;BME280;63673;49.928;8.150;2023-05-29T04:18:26;992.92;;;13.7;81.96
75089;BME280;63673;49.928;8.150;2023-05-29T04:19:28;992.93;;;13.69;80.39
75089;BME280;63673;49.928;8.150;2023-05-29T04:20:30;992.98;;;13.68;81.56
75089;BME280;63673;49.928;8.150;2023-05-29T04:21:32;992.96;;;13.67;82.95
75089;BME280;63673;49.928;8.150;2023-05-29T04:22:34;993.01;;;13.65;82.87
75089;BME280;63673;49.928;8.150;2023-05-29T04:23:35;993;;;13.65;82.92
75089;BME280;63673;49.928;8.150;2023-05-29T04:24:37;993.01;;;13.64;82.84
75089;BME280;63673;49.928;8.150;2023-05-29T04:25:38;992.96;;;13.63;82.93
75089;BME280;63673;49.928;8.150;2023-05-29T04:26:40;993.03;;;13.62;84.26
75089;BME280;63673;49.928;8.150;2023-05-29T04:27:42;993.11;;;13.61;82.95
75089;BME280;63673;49.928;8.150;2023-05-29T04:28:44;993.11;;;13.6;84.17
75089;BME280;63673;49.928;8.150;2023-05-29T04:29:45;993.1;;;13.6;83.11
75089;BME280;63673;49.928;8.150;2023-05-29T04:30:47;993.14;;;13.58;84.09
75089;BME280;63673;49.928;8.150;2023-05-29T04:31:49;993.16;;;13.58;83.4
75089;BME280;63673;49.928;8.150;2023-05-29T04:32:51;993.14;;;13.57;84.13
75089;BME280;63673;49.928;8.150;2023-05-29T04:33:52;993.14;;;13.57;83.98
75089;BME280;63673;49.928;8.150;2023-05-29T04:34:54;993.17;;;13.55;84.99
75089;BME280;63673;49.928;8.150;2023-05-29T04:35:56;993.23;;;13.56;85.8
75089;BME280;63673;49.928;8.150;2023-05-29T04:36:58;993.26;;;13.54;84.5
75089;BME280;63673;49.928;8.150;2023-05-29T04:37:59;993.24;;;13.53;84.69
75089;BME280;63673;49.928;8.150;2023-05-29T04:39:01;993.21;;;13.52;84.74
75089;BME280;63673;49.928;8.150;2023-05-29T04:40:03;993.33;;;13.51;86.24
75089;BME280;63673;49.928;8.150;2023-05-29T04:41:04;993.28;;;13.5;87.36
75089;BME280;63673;49.928;8.150;2023-05-29T04:42:06;993.3;;;13.48;87.95
75089;BME280;63673;49.928;8.150;2023-05-29T04:43:08;993.32;;;13.46;87.3
75089;BME280;63673;49.928;8.150;2023-05-29T04:44:10;993.34;;;13.45;88.06
75089;BME280;63673;49.928;8.150;2023-05-29T04:45:11;993.36;;;13.44;88.25
75089;BME280;63673;49.928;8.150;2023-05-29T04:46:13;993.34;;;13.42;88.86
75089;BME280;63673;49.928;8.150;2023-05-29T04:47:15;993.39;;;13.41;89
75089;BME280;63673;49.928;8.150;2023-05-29T04:48:17;993.4;;;13.39;89.21
75089;BME280;63673;49.928;8.150;2023-05-29T04:49:18;993.4;;;13.38;90.12
75089;BME280;63673;49.928;8.150;2023-05-29T04:50:21;993.41;;;13.36;90.81
75089;BME280;63673;49.928;8.150;2023-05-29T04:51:22;993.37;;;13.35;89.98
75089;BME280;63673;49.928;8.150;2023-05-29T04:52:24;993.41;;;13.35;90.71
75089;BME280;63673;49.928;8.150;2023-05-29T04:53:25;993.47;;;13.35;91.19
75089;BME280;63673;49.928;8.150;2023-05-29T04:54:27;993.44;;;13.34;91.5
75089;BME280;63673;49.928;8.150;2023-05-29T04:55:29;993.45;;;13.34;93.13
75089;BME280;63673;49.928;8.150;2023-05-29T04:56:30;993.47;;;13.34;92.05
75089;BME280;63673;49.928;8.150;2023-05-29T04:57:32;993.48;;;13.36;92.63
75089;BME280;63673;49.928;8.150;2023-05-29T04:58:34;993.52;;;13.37;93.23
75089;BME280;63673;49.928;8.150;2023-05-29T04:59:36;993.54;;;13.4;93.28
75089;BME280;63673;49.928;8.150;2023-05-29T05:00:37;993.57;;;13.41;93.19
75089;BME280;63673;49.928;8.150;2023-05-29T05:01:39;993.56;;;13.43;94.84
75089;BME280;63673;49.928;8.150;2023-05-29T05:02:41;993.58;;;13.45;95.06
75089;BME280;63673;49.928;8.150;2023-05-29T05:03:43;993.57;;;13.47;94.73
75089;BME280;63673;49.928;8.150;2023-05-29T05:04:44;993.63;;;13.49;94.08
75089;BME280;63673;49.928;8.150;2023-05-29T05:05:46;993.62;;;13.51;94.14
75089;BME280;63673;49.928;8.150;2023-05-29T05:06:48;993.61;;;13.53;94.34
75089;BME280;63673;49.928;8.150;2023-05-29T05:07:50;993.62;;;13.55;96.41
75089;BME280;63673;49.928;8.150;2023-05-29T05:08:51;993.66;;;13.57;94.96
75089;BME280;63673;49.928;8.150;2023-05-29T05:09:53;993.67;;;13.6;95.49
75089;BME280;63673;49.928;8.150;2023-05-29T05:10:55;993.61;;;13.61;96.95
75089;BME280;63673;49.928;8.150;2023-05-29T05:11:57;993.71;;;13.64;96.66
75089;BME280;63673;49.928;8.150;2023-05-29T05:12:58;993.69;;;13.66;97.19
75089;BME280;63673;49.928;8.150;2023-05-29T05:14:00;993.68;;;13.69;98.41
75089;BME280;63673;49.928;8.150;2023-05-29T05:15:02;993.67;;;13.71;98.55
75089;BME280;63673;49.928;8.150;2023-05-29T05:16:04;993.68;;;13.74;98.51
75089;BME280;63673;49.928;8.150;2023-05-29T05:17:05;993.74;;;13.77;99.51
75089;BME280;63673;49.928;8.150;2023-05-29T05:18:07;993.72;;;13.79;100
75089;BME280;63673;49.928;8.150;2023-05-29T05:19:09;993.68;;;13.82;99.41
75089;BME280;63673;49.928;8.150;2023-05-29T05:20:11;993.68;;;13.86;99.19
75089;BME280;63673;49.928;8.150;2023-05-29T05:21:12;993.72;;;13.89;99.7
75089;BME280;63673;49.928;8.150;2023-05-29T05:22:14;993.74;;;13.94;99.23
75089;BME280;63673;49.928;8.150;2023-05-29T05:23:16;993.71;;;13.97;100
75089;BME280;63673;49.928;8.150;2023-05-29T05:24:17;993.72;;;14.01;100
75089;BME280;63673;49.928;8.150;2023-05-29T05:25:19;993.74;;;14.05;99.32
75089;BME280;63673;49.928;8.150;2023-05-29T05:26:21;993.68;;;14.12;99.57
75089;BME280;63673;49.928;8.150;2023-05-29T05:27:22;993.73;;;14.16;98.47
75089;BME280;63673;49.928;8.150;2023-05-29T05:28:24;993.73;;;14.23;99.53
75089;BME280;63673;49.928;8.150;2023-05-29T05:29:26;993.77;;;14.29;100
75089;BME280;63673;49.928;8.150;2023-05-29T05:30:28;993.75;;;14.35;100
75089;BME280;63673;49.928;8.150;2023-05-29T05:31:29;993.78;;;14.41;100
75089;BME280;63673;49.928;8.150;2023-05-29T05:32:31;993.76;;;14.49;98.63
75089;BME280;63673;49.928;8.150;2023-05-29T05:33:33;993.76;;;14.56;96.59
75089;BME280;63673;49.928;8.150;2023-05-29T05:34:35;993.77;;;14.63;97.51
75089;BME280;63673;49.928;8.150;2023-05-29T05:35:36;993.78;;;14.72;96.48
75089;BME280;63673;49.928;8.150;2023-05-29T05:36:38;993.8;;;14.81;96.85
75089;BME280;63673;49.928;8.150;2023-05-29T05:37:40;993.76;;;14.9;96.96